createdAt,value
2019-01-25T00:01:19.327Z,4.60
2019-01-25T00:03:49.282Z,4.23
2019-01-25T00:06:19.195Z,5.67
2019-01-25T00:08:49.138Z,4.50
2019-01-25T00:11:19.111Z,7.00
2019-01-25T00:13:49.063Z,6.30
2019-01-25T00:16:19.010Z,6.03
2019-01-25T00:18:48.983Z,4.70
2019-01-25T00:21:18.950Z,5.73
2019-01-25T00:23:49.026Z,4.43
2019-01-25T00:26:19.162Z,3.80
2019-01-25T00:28:49.144Z,3.53
2019-01-25T00:31:19.110Z,3.90
2019-01-25T00:33:49.114Z,3.70
2019-01-25T00:36:19.445Z,4.00
2019-01-25T00:38:49.413Z,3.50
2019-01-25T00:41:19.328Z,3.80
2019-01-25T00:43:49.395Z,3.60
2019-01-25T00:46:19.319Z,2.53
2019-01-25T00:48:49.291Z,3.30
2019-01-25T00:51:19.266Z,3.37
2019-01-25T00:53:49.183Z,4.40
2019-01-25T00:56:19.283Z,3.73
2019-01-25T00:58:49.217Z,2.60
2019-01-25T01:01:19.175Z,3.17
2019-01-25T01:03:49.210Z,3.23
2019-01-25T01:06:19.285Z,3.60
2019-01-25T01:08:49.345Z,3.07
2019-01-25T01:11:19.351Z,4.37
2019-01-25T01:13:49.267Z,3.90
2019-01-25T01:16:19.223Z,3.63
2019-01-25T01:18:49.198Z,3.17
2019-01-25T01:21:19.167Z,4.17
2019-01-25T01:23:49.111Z,4.10
2019-01-25T01:26:19.117Z,3.80
2019-01-25T01:28:49.102Z,3.83
2019-01-25T01:31:19.082Z,6.30
2019-01-25T01:33:48.979Z,4.50
2019-01-25T01:36:19.090Z,3.50
2019-01-25T01:38:49.542Z,3.90
2019-01-25T01:41:19.498Z,4.13
2019-01-25T01:43:49.442Z,3.60
2019-01-25T01:46:19.376Z,3.43
2019-01-25T01:48:49.310Z,3.10
2019-01-25T01:51:19.247Z,3.50
2019-01-25T01:53:49.186Z,3.23
2019-01-25T01:56:19.163Z,3.30
2019-01-25T01:58:49.122Z,2.80
2019-01-25T02:01:19.066Z,2.70
2019-01-25T02:03:48.979Z,2.57
2019-01-25T02:06:18.908Z,2.43
2019-01-25T02:08:48.947Z,3.77
2019-01-25T02:11:19.014Z,3.00
2019-01-25T02:13:48.958Z,3.67
2019-01-25T02:16:18.971Z,3.10
2019-01-25T02:18:48.875Z,2.87
2019-01-25T02:21:19.094Z,3.30
2019-01-25T02:23:49.143Z,2.90
2019-01-25T02:26:19.170Z,2.50
2019-01-25T02:28:49.241Z,3.50
2019-01-25T02:31:19.267Z,3.00
2019-01-25T02:33:49.330Z,3.03
2019-01-25T02:36:19.356Z,3.20
2019-01-25T02:38:49.312Z,2.83
2019-01-25T02:41:19.330Z,3.60
2019-01-25T02:43:49.315Z,2.43
2019-01-25T02:46:19.241Z,3.50
2019-01-25T02:48:49.203Z,2.83
2019-01-25T02:51:19.141Z,2.80
2019-01-25T02:53:49.094Z,2.47
2019-01-25T02:56:19.062Z,3.60
2019-01-25T02:58:49.015Z,2.33
2019-01-25T03:01:18.983Z,2.53
2019-01-25T03:03:48.950Z,2.10
2019-01-25T03:06:18.894Z,1.83
2019-01-25T03:08:48.859Z,1.83
2019-01-25T03:11:18.818Z,1.50
2019-01-25T03:13:48.788Z,2.40
2019-01-25T03:16:18.731Z,2.80
2019-01-25T03:18:48.719Z,2.90
2019-01-25T03:21:18.662Z,3.20
2019-01-25T03:23:48.627Z,3.17
2019-01-25T03:26:18.553Z,2.97
2019-01-25T03:28:48.611Z,3.43
2019-01-25T03:31:18.533Z,3.63
2019-01-25T03:33:48.519Z,4.10
2019-01-25T03:36:18.464Z,3.37
2019-01-25T03:38:48.403Z,3.77
2019-01-25T03:41:18.419Z,3.30
2019-01-25T03:43:48.414Z,3.60
2019-01-25T03:46:18.316Z,3.97
2019-01-25T03:48:48.388Z,2.97
2019-01-25T03:51:18.316Z,3.60
2019-01-25T03:53:48.358Z,3.90
2019-01-25T03:56:18.417Z,3.80
2019-01-25T03:58:48.338Z,3.87
2019-01-25T04:01:18.278Z,3.90
2019-01-25T04:03:48.191Z,3.03
2019-01-25T04:06:18.204Z,3.70
2019-01-25T04:08:48.267Z,3.60
2019-01-25T04:11:18.216Z,3.50
2019-01-25T04:13:48.178Z,3.83
2019-01-25T04:16:18.158Z,3.47
2019-01-25T04:18:48.100Z,3.20
2019-01-25T04:21:18.095Z,3.63
2019-01-25T04:23:48.127Z,3.45
2019-01-25T04:26:18.088Z,3.50
2019-01-25T04:28:48.015Z,3.53
2019-01-25T04:31:17.975Z,2.57
2019-01-25T04:33:47.894Z,2.97
2019-01-25T04:36:17.854Z,2.77
2019-01-25T04:38:47.798Z,3.03
2019-01-25T04:41:17.814Z,2.83
2019-01-25T04:43:47.933Z,2.07
2019-01-25T04:46:18.008Z,2.63
2019-01-25T04:48:47.943Z,2.40
2019-01-25T04:51:17.930Z,2.27
2019-01-25T04:53:47.990Z,1.97
2019-01-25T04:56:17.951Z,2.07
2019-01-25T04:58:47.908Z,1.90
2019-01-25T05:01:18.031Z,4.37
2019-01-25T05:03:47.983Z,4.00
2019-01-25T05:06:18.200Z,4.57
2019-01-25T05:08:48.379Z,3.67
2019-01-25T05:11:20.344Z,4.70
2019-01-25T05:13:50.429Z,4.83
2019-01-25T05:16:20.505Z,4.17
2019-01-25T05:18:50.571Z,3.70
2019-01-25T05:21:24.991Z,4.03
2019-01-25T05:23:54.916Z,3.93
2019-01-25T05:26:24.972Z,3.80
2019-01-25T05:28:55.139Z,3.67
2019-01-25T05:31:29.041Z,3.33
2019-01-25T05:33:59.403Z,3.00
2019-01-25T05:36:29.393Z,3.43
2019-01-25T05:38:59.363Z,2.60
2019-01-25T05:41:29.333Z,2.23
2019-01-25T05:43:59.349Z,1.97
2019-01-25T05:46:29.303Z,2.03
2019-01-25T05:48:59.279Z,2.40
2019-01-25T05:51:33.575Z,3.27
2019-01-25T05:54:00.820Z,2.40
2019-01-25T05:56:30.820Z,2.40
2019-01-25T05:59:00.796Z,2.47
2019-01-25T06:01:30.730Z,3.47
2019-01-25T06:04:00.709Z,2.10
2019-01-25T06:06:30.859Z,2.20
2019-01-25T06:09:00.838Z,2.27
2019-01-25T06:11:35.511Z,2.73
2019-01-25T06:14:02.568Z,2.10
2019-01-25T06:16:32.527Z,2.23
2019-01-25T06:19:02.502Z,2.10
2019-01-25T06:21:34.702Z,2.00
2019-01-25T06:24:07.815Z,1.60
2019-01-25T06:26:39.308Z,2.10
2019-01-25T06:29:09.263Z,1.87
2019-01-25T06:31:39.210Z,1.60
2019-01-25T06:34:09.286Z,2.50
2019-01-25T06:36:39.204Z,2.17
2019-01-25T06:39:10.395Z,2.07
2019-01-25T06:41:44.102Z,2.47
2019-01-25T06:44:12.019Z,2.60
2019-01-25T06:46:41.969Z,3.20
2019-01-25T06:49:12.242Z,3.23
2019-01-25T06:51:42.184Z,4.43
2019-01-25T06:54:12.171Z,4.20
2019-01-25T06:56:42.126Z,3.20
2019-01-25T06:59:15.546Z,2.60
2019-01-25T07:02:02.844Z,3.23
2019-01-25T07:04:34.150Z,3.30
2019-01-25T07:07:05.996Z,2.50
2019-01-25T07:09:35.968Z,1.63
2019-01-25T07:12:06.031Z,0.90
2019-01-25T07:14:36.062Z,1.90
2019-01-25T07:17:06.278Z,1.73
2019-01-25T07:19:37.812Z,2.13
2019-01-25T07:22:07.835Z,1.77
2019-01-25T07:24:37.914Z,1.40
2019-01-25T07:27:08.079Z,1.90
2019-01-25T07:29:38.148Z,1.27
2019-01-25T07:32:08.210Z,2.20
2019-01-25T07:34:38.214Z,2.80
2019-01-25T07:37:08.196Z,2.37
2019-01-25T07:39:38.199Z,2.53
2019-01-25T07:42:08.230Z,2.20
2019-01-25T07:44:38.371Z,1.73
2019-01-25T07:47:08.370Z,2.10
2019-01-25T07:49:38.308Z,1.63
2019-01-25T07:52:08.412Z,1.97
2019-01-25T07:54:38.408Z,3.80
2019-01-25T07:57:08.399Z,3.60
2019-01-25T07:59:38.324Z,2.53
2019-01-25T08:02:08.407Z,3.90
2019-01-25T08:04:38.335Z,3.10
2019-01-25T08:07:08.368Z,2.87
2019-01-25T08:09:38.316Z,3.37
2019-01-25T08:12:08.522Z,3.53
2019-01-25T08:14:38.552Z,3.20
2019-01-25T08:17:08.509Z,4.17
2019-01-25T08:19:38.451Z,2.93
2019-01-25T08:22:08.408Z,3.63
2019-01-25T08:24:38.395Z,3.87
2019-01-25T08:27:08.374Z,3.63
2019-01-25T08:29:38.402Z,4.20
2019-01-25T08:32:08.675Z,4.53
2019-01-25T08:34:38.854Z,5.50
2019-01-25T08:37:08.788Z,4.30
2019-01-25T08:39:38.724Z,3.13
2019-01-25T08:42:15.223Z,4.23
2019-01-25T08:44:40.404Z,3.77
2019-01-25T08:47:10.358Z,2.70
2019-01-25T08:49:40.410Z,3.00
2019-01-25T08:52:10.795Z,2.90
2019-01-25T08:54:40.887Z,3.97
2019-01-25T08:57:10.864Z,3.33
2019-01-25T08:59:40.840Z,3.40
2019-01-25T09:02:10.803Z,3.50
2019-01-25T09:04:40.772Z,4.40
2019-01-25T09:07:10.677Z,4.70
2019-01-25T09:09:40.631Z,4.40
2019-01-25T09:12:10.662Z,3.30
2019-01-25T09:14:40.603Z,3.30
2019-01-25T09:17:10.659Z,4.50
2019-01-25T09:19:40.634Z,4.37
2019-01-25T09:22:10.574Z,3.30
2019-01-25T09:24:40.636Z,3.60
2019-01-25T09:27:10.571Z,4.27
2019-01-25T09:29:40.546Z,4.20
2019-01-25T09:32:10.792Z,3.60
2019-01-25T09:34:40.852Z,4.97
2019-01-25T09:37:10.828Z,3.63
2019-01-25T09:39:40.782Z,3.73
2019-01-25T09:42:10.736Z,3.03
2019-01-25T09:44:40.877Z,4.10
2019-01-25T09:47:10.799Z,5.00
2019-01-25T09:49:40.837Z,4.63
2019-01-25T09:52:11.014Z,4.67
2019-01-25T09:54:41.049Z,4.40
2019-01-25T09:57:11.054Z,3.50
2019-01-25T09:59:42.349Z,3.90
2019-01-25T10:02:12.423Z,3.40
2019-01-25T10:04:42.416Z,3.50
2019-01-25T10:07:12.475Z,3.43
2019-01-25T10:09:42.420Z,3.58
2019-01-25T10:12:12.398Z,4.20
2019-01-25T10:14:42.346Z,3.60
2019-01-25T10:17:12.295Z,4.10
2019-01-25T10:19:42.248Z,3.80
2019-01-25T10:22:12.193Z,3.90
2019-01-25T10:24:42.146Z,4.00
2019-01-25T10:27:12.125Z,4.77
2019-01-25T10:29:42.111Z,3.20
2019-01-25T10:32:12.075Z,4.00
2019-01-25T10:34:42.096Z,3.83
2019-01-25T10:37:11.991Z,2.30
2019-01-25T10:39:41.935Z,3.40
2019-01-25T10:42:11.950Z,3.00
2019-01-25T10:44:41.912Z,3.13
2019-01-25T10:47:11.966Z,2.47
2019-01-25T10:49:41.895Z,3.57
2019-01-25T10:52:11.957Z,3.40
2019-01-25T10:54:41.990Z,3.10
2019-01-25T10:57:12.060Z,3.60
2019-01-25T10:59:41.995Z,3.83
2019-01-25T11:02:12.014Z,3.37
2019-01-25T11:04:42.006Z,3.97
2019-01-25T11:07:12.012Z,2.97
2019-01-25T11:09:41.967Z,4.20
2019-01-25T11:12:11.951Z,3.10
2019-01-25T11:14:41.886Z,4.07
2019-01-25T11:17:14.370Z,3.27
2019-01-25T11:19:44.399Z,2.73
2019-01-25T11:22:14.395Z,2.90
2019-01-25T11:24:44.378Z,2.40
2019-01-25T11:27:14.327Z,2.57
2019-01-25T11:29:45.288Z,3.10
2019-01-25T11:32:15.249Z,3.30
2019-01-25T11:34:45.300Z,2.33
2019-01-25T11:37:15.255Z,2.23
2019-01-25T11:39:49.228Z,2.20
2019-01-25T11:42:16.971Z,3.07
2019-01-25T11:44:47.056Z,4.10
2019-01-25T11:49:48.995Z,3.33
2019-01-25T11:52:19.059Z,3.60
2019-01-25T11:54:50.457Z,3.50
2019-01-25T11:57:20.853Z,2.27
2019-01-25T11:59:50.903Z,3.27
2019-01-25T12:02:21.107Z,4.13
2019-01-25T12:04:51.236Z,2.70
2019-01-25T12:07:21.240Z,3.60
2019-01-25T12:09:51.183Z,3.40
2019-01-25T12:12:21.131Z,2.80
2019-01-25T12:14:51.075Z,2.53
2019-01-25T12:17:21.050Z,3.37
2019-01-25T12:19:51.035Z,2.87
2019-01-25T12:22:21.071Z,2.50
2019-01-25T12:24:51.032Z,3.63
2019-01-25T12:27:20.987Z,4.07
2019-01-25T12:29:51.005Z,4.97
2019-01-25T12:32:20.955Z,2.93
2019-01-25T12:34:50.934Z,4.53
2019-01-25T12:37:20.912Z,3.90
2019-01-25T12:39:50.884Z,5.40
2019-01-25T12:42:20.822Z,4.17
2019-01-25T12:44:50.818Z,5.80
2019-01-25T12:47:20.785Z,4.70
2019-01-25T12:49:50.767Z,4.77
2019-01-25T12:52:20.786Z,5.10
2019-01-25T12:54:50.729Z,5.83
2019-01-25T12:57:20.735Z,5.23
2019-01-25T12:59:50.774Z,6.10
2019-01-25T13:02:20.715Z,5.80
2019-01-25T13:04:50.738Z,7.07
2019-01-25T13:07:20.687Z,5.13
2019-01-25T13:09:50.667Z,4.43
2019-01-25T13:12:25.101Z,5.70
2019-01-25T13:14:52.223Z,5.80
2019-01-25T13:17:22.152Z,3.97
2019-01-25T13:19:52.151Z,3.90
2019-01-25T13:22:22.195Z,3.77
2019-01-25T13:24:52.190Z,3.83
2019-01-25T13:27:22.242Z,4.03
2019-01-25T13:29:52.203Z,4.20
2019-01-25T13:32:22.331Z,4.00
2019-01-25T13:34:52.392Z,3.93
2019-01-25T13:37:22.309Z,4.93
2019-01-25T13:39:52.432Z,5.03
2019-01-25T13:42:22.430Z,5.17
2019-01-25T13:44:52.419Z,3.90
2019-01-25T13:47:25.222Z,3.73
2019-01-25T13:49:55.212Z,4.37
2019-01-25T13:52:25.168Z,3.97
2019-01-25T13:54:55.206Z,4.80
2019-01-25T13:57:25.168Z,5.73
2019-01-25T13:59:55.332Z,3.93
2019-01-25T14:02:25.404Z,4.60
2019-01-25T14:04:55.378Z,4.97
2019-01-25T14:07:25.442Z,4.27
2019-01-25T14:09:55.406Z,4.77
2019-01-25T14:12:25.388Z,5.20
2019-01-25T14:14:55.435Z,5.13
2019-01-25T14:17:25.416Z,4.60
2019-01-25T14:19:55.506Z,5.20
2019-01-25T14:22:25.501Z,5.07
2019-01-25T14:24:55.428Z,4.40
2019-01-25T14:27:25.427Z,4.73
2019-01-25T14:29:55.373Z,4.53
2019-01-25T14:32:25.612Z,4.30
2019-01-25T14:34:55.732Z,4.87
2019-01-25T14:37:25.888Z,5.23
2019-01-25T14:39:55.906Z,5.72
2019-01-25T14:42:26.183Z,5.23
2019-01-25T14:44:56.251Z,6.23
2019-01-25T14:47:28.123Z,5.13
2019-01-25T14:49:58.147Z,6.20
2019-01-25T14:52:28.304Z,5.10
2019-01-25T14:54:58.252Z,5.97
2019-01-25T14:57:28.338Z,5.57
2019-01-25T14:59:58.603Z,5.10
2019-01-25T15:02:28.590Z,4.87
2019-01-25T15:04:58.603Z,5.13
2019-01-25T15:07:28.551Z,5.30
2019-01-25T15:09:58.739Z,5.60
2019-01-25T15:12:28.819Z,4.60
2019-01-25T15:14:58.764Z,5.53
2019-01-25T15:17:32.207Z,5.00
2019-01-25T15:20:02.220Z,4.80
2019-01-25T15:22:32.263Z,4.53
2019-01-25T15:25:04.314Z,5.40
2019-01-25T15:27:34.357Z,5.07
2019-01-25T15:30:05.412Z,5.20
2019-01-25T15:32:38.707Z,5.60
2019-01-25T15:35:10.111Z,5.77
2019-01-25T15:37:40.077Z,4.93
2019-01-25T15:40:11.367Z,4.30
2019-01-25T15:42:41.499Z,4.40
2019-01-25T15:45:13.466Z,4.20
2019-01-25T15:47:43.540Z,5.10
2019-01-25T15:50:33.084Z,3.90
2019-01-25T15:53:03.273Z,4.33
2019-01-25T15:55:33.684Z,5.33
2019-01-25T15:58:03.750Z,4.83
2019-01-25T16:00:33.841Z,4.33
2019-01-25T16:03:03.888Z,4.10
2019-01-25T16:05:33.955Z,4.83
2019-01-25T16:08:07.195Z,4.27
2019-01-25T16:10:37.215Z,4.87
2019-01-25T16:13:07.458Z,6.20
2019-01-25T16:15:37.480Z,5.00
2019-01-25T16:18:07.831Z,5.67
2019-01-25T16:20:37.915Z,4.40
2019-01-25T16:23:08.155Z,4.70
2019-01-25T16:25:42.537Z,4.30
2019-01-25T16:28:12.818Z,4.77
2019-01-25T16:30:42.788Z,4.30
2019-01-25T16:33:12.802Z,4.03
2019-01-25T16:35:42.759Z,3.97
2019-01-25T16:38:12.817Z,4.23
2019-01-25T16:40:42.963Z,4.47
2019-01-25T16:43:13.484Z,3.87
2019-01-25T16:45:45.472Z,4.20
2019-01-25T16:48:16.891Z,4.40
2019-01-25T16:50:54.585Z,3.50
2019-01-25T16:53:26.617Z,4.33
2019-01-25T16:55:58.037Z,4.30
2019-01-25T16:58:30.826Z,3.80
2019-01-25T17:01:01.270Z,5.03
2019-01-25T17:03:31.501Z,4.03
2019-01-25T17:06:01.583Z,4.20
2019-01-25T17:08:31.639Z,4.20
2019-01-25T17:11:01.579Z,3.53
2019-01-25T17:13:31.642Z,3.60
2019-01-25T17:16:01.590Z,4.27
2019-01-25T17:18:31.516Z,4.93
2019-01-25T17:21:01.503Z,4.77
2019-01-25T17:23:31.527Z,4.77
2019-01-25T17:26:01.507Z,4.10
2019-01-25T17:28:31.449Z,4.50
2019-01-25T17:31:01.409Z,4.90
2019-01-25T17:33:31.351Z,4.53
2019-01-25T17:36:01.305Z,4.13
2019-01-25T17:38:31.300Z,3.87
2019-01-25T17:41:01.340Z,4.30
2019-01-25T17:43:31.398Z,4.58
2019-01-25T17:46:01.331Z,5.20
2019-01-25T17:48:31.398Z,5.07
2019-01-25T17:51:01.618Z,5.67
2019-01-25T17:53:31.680Z,6.30
2019-01-25T17:56:01.619Z,6.50
2019-01-25T17:58:31.629Z,5.40
2019-01-25T18:01:01.679Z,6.20
2019-01-25T18:03:32.939Z,5.80
2019-01-25T18:06:02.899Z,4.70
2019-01-25T18:08:32.964Z,5.30
2019-01-25T18:11:03.736Z,5.00
2019-01-25T18:13:34.005Z,6.03
2019-01-25T18:16:04.139Z,4.87
2019-01-25T18:18:34.218Z,5.70
2019-01-25T18:21:04.335Z,5.37
2019-01-25T18:23:34.636Z,6.43
2019-01-25T18:26:17.309Z,5.63
2019-01-25T18:29:17.596Z,5.80
2019-01-25T18:31:47.804Z,7.00
2019-01-25T18:34:17.785Z,6.70
2019-01-25T18:36:47.767Z,5.90
2019-01-25T18:39:18.224Z,6.43
2019-01-25T18:41:48.186Z,6.23
2019-01-25T18:44:18.184Z,6.27
2019-01-25T18:46:48.134Z,6.43
2019-01-25T18:49:18.108Z,6.47
2019-01-25T18:51:48.118Z,6.40
2019-01-25T18:54:18.092Z,7.63
2019-01-25T18:56:49.519Z,7.20
2019-01-25T18:59:19.624Z,7.23
2019-01-25T19:01:53.999Z,6.30
2019-01-25T19:04:24.231Z,8.80
2019-01-25T19:06:54.305Z,7.60
2019-01-25T19:09:26.301Z,8.27
2019-01-25T19:11:56.396Z,8.43
2019-01-25T19:14:26.832Z,9.40
2019-01-25T19:16:56.768Z,7.87
2019-01-25T19:19:26.800Z,9.40
2019-01-25T19:21:56.850Z,9.67
2019-01-25T19:24:26.819Z,9.33
2019-01-25T19:26:56.750Z,8.20
2019-01-25T19:29:26.816Z,7.50
2019-01-25T19:31:57.008Z,7.17
2019-01-25T19:34:27.040Z,8.30
2019-01-25T19:36:57.176Z,7.73
2019-01-25T19:39:27.319Z,8.60
2019-01-25T19:41:57.360Z,8.20
2019-01-25T19:44:27.368Z,7.80
2019-01-25T19:46:57.331Z,8.10
2019-01-25T19:49:27.255Z,8.17
2019-01-25T19:51:57.347Z,9.93
2019-01-25T19:54:27.544Z,11.50
2019-01-25T19:56:57.612Z,12.37
2019-01-25T19:59:27.632Z,11.40
2019-01-25T20:01:57.791Z,12.13
2019-01-25T20:04:27.854Z,13.13
2019-01-25T20:06:58.067Z,10.70
2019-01-25T20:09:27.987Z,10.20
2019-01-25T20:11:58.047Z,10.37
2019-01-25T20:14:28.041Z,9.23
2019-01-25T20:16:58.029Z,7.43
2019-01-25T20:19:28.264Z,10.73
2019-01-25T20:21:58.232Z,6.10
2019-01-25T20:24:28.187Z,6.00
2019-01-25T20:26:58.192Z,6.17
2019-01-25T20:29:28.147Z,7.10
2019-01-25T20:31:58.230Z,7.90
2019-01-25T20:34:28.173Z,8.53
2019-01-25T20:36:58.125Z,10.20
2019-01-25T20:39:28.087Z,9.80
2019-01-25T20:41:58.049Z,9.13
2019-01-25T20:44:28.136Z,9.60
2019-01-25T20:46:58.118Z,10.17
2019-01-25T20:49:28.065Z,10.00
2019-01-25T20:51:58.343Z,11.07
2019-01-25T20:54:28.640Z,11.00
2019-01-25T20:56:58.668Z,10.80
2019-01-25T20:59:33.858Z,11.23
2019-01-25T21:02:03.627Z,9.30
2019-01-25T21:04:33.839Z,10.83
2019-01-25T21:07:03.924Z,10.40
2019-01-25T21:09:33.945Z,9.90
2019-01-25T21:12:04.157Z,10.37
2019-01-25T21:14:34.230Z,10.63
2019-01-25T21:17:04.339Z,11.63
2019-01-25T21:19:34.286Z,10.97
2019-01-25T21:22:04.374Z,11.00
2019-01-25T21:24:34.498Z,12.10
2019-01-25T21:27:04.535Z,11.20
2019-01-25T21:29:34.515Z,10.20
2019-01-25T21:32:04.476Z,12.17
2019-01-25T21:34:34.464Z,11.13
2019-01-25T21:37:04.409Z,10.50
2019-01-25T21:39:34.480Z,12.50
2019-01-25T21:42:04.430Z,11.70
2019-01-25T21:44:35.151Z,13.97
2019-01-25T21:47:05.542Z,12.57
2019-01-25T21:49:35.608Z,11.90
2019-01-25T21:52:05.983Z,13.20
2019-01-25T21:54:35.987Z,12.60
2019-01-25T21:57:06.212Z,11.23
2019-01-25T21:59:36.279Z,11.50
2019-01-25T22:02:06.627Z,12.87
2019-01-25T22:04:36.821Z,12.13
2019-01-25T22:07:06.762Z,12.23
2019-01-25T22:09:37.226Z,12.03
2019-01-25T22:12:07.515Z,13.00
2019-01-25T22:14:37.537Z,13.47
2019-01-25T22:17:07.758Z,13.00
2019-01-25T22:19:37.851Z,12.27
2019-01-25T22:22:07.887Z,11.90
2019-01-25T22:24:37.899Z,12.60
2019-01-25T22:27:08.055Z,13.90
2019-01-25T22:29:38.054Z,12.50
2019-01-25T22:32:07.964Z,11.20
2019-01-25T22:34:38.009Z,12.67
2019-01-25T22:37:08.023Z,11.50
2019-01-25T22:39:38.013Z,12.18
2019-01-25T22:42:07.955Z,11.13
2019-01-25T22:44:37.940Z,12.00
2019-01-25T22:47:07.869Z,10.80
2019-01-25T22:49:37.949Z,11.03
2019-01-25T22:52:07.977Z,11.80
2019-01-25T22:54:37.974Z,11.87
2019-01-25T22:57:08.153Z,12.30
2019-01-25T22:59:38.163Z,12.27
2019-01-25T23:02:08.447Z,9.30
2019-01-25T23:05:12.463Z,9.53
2019-01-25T23:07:42.520Z,10.37
2019-01-25T23:10:23.046Z,9.27
2019-01-25T23:12:53.005Z,10.50
2019-01-25T23:15:23.161Z,10.07
2019-01-25T23:17:53.102Z,11.00
2019-01-25T23:20:23.143Z,11.43
2019-01-25T23:22:53.103Z,9.70
2019-01-25T23:25:23.278Z,9.10
2019-01-25T23:27:53.505Z,10.30
2019-01-25T23:30:23.699Z,11.77
2019-01-25T23:32:53.782Z,10.30
2019-01-25T23:35:23.709Z,10.17
2019-01-25T23:37:53.732Z,11.60
2019-01-25T23:40:23.763Z,11.17
2019-01-25T23:42:53.742Z,10.90
2019-01-25T23:45:24.016Z,11.60
2019-01-25T23:47:53.997Z,10.60
2019-01-25T23:50:24.150Z,11.20
2019-01-25T23:52:54.233Z,11.13
2019-01-25T23:55:24.279Z,10.80
2019-01-25T23:57:54.323Z,11.13
